Time;durP1;ratioP1;P1;durP2;ratioP2;P2;SDS_P1;SDS_P2;PMS_P1;PMS_P2;Temp;Humidity;BMP_temperature;BMP_pressure;BME280_temperature;BME280_humidity;BME280_pressure;Samples;Min_cycle;Max_cycle;Signal;HPM_P1;HPM_P2
2022/03/11 00:01:42;;;;;;;3.12;2.92;;;1.50;51.40;;;;;;626542;229;26742;-65
2022/03/11 00:04:09;;;;;;;2.65;2.45;;;1.50;51.50;;;;;;626634;229;26584;-66
2022/03/11 00:06:36;;;;;;;3.25;2.75;;;1.40;51.20;;;;;;626643;229;26541;-65
2022/03/11 00:09:04;;;;;;;3.58;2.87;;;1.40;51.40;;;;;;626658;230;26504;-65
2022/03/11 00:11:32;;;;;;;2.60;2.40;;;1.40;51.30;;;;;;626631;229;26547;-65
2022/03/11 00:14:00;;;;;;;3.05;2.85;;;1.40;51.30;;;;;;626593;224;26824;-65
2022/03/11 00:16:26;;;;;;;3.30;3.00;;;1.40;51.20;;;;;;626559;227;26551;-65
2022/03/11 00:18:54;;;;;;;3.12;2.92;;;1.40;51.50;;;;;;626618;229;26799;-65
2022/03/11 00:21:21;;;;;;;3.08;2.53;;;1.40;51.30;;;;;;627781;227;26580;-65
2022/03/11 00:23:49;;;;;;;3.30;3.00;;;1.40;51.30;;;;;;627444;229;26936;-65
2022/03/11 00:26:16;;;;;;;3.42;2.80;;;1.30;51.30;;;;;;627180;228;26532;-65
2022/03/11 00:28:43;;;;;;;2.92;2.70;;;1.30;51.10;;;;;;627027;229;26783;-66
2022/03/11 00:31:11;;;;;;;3.45;3.12;;;1.20;51.10;;;;;;626821;228;26591;-65
2022/03/11 00:33:39;;;;;;;3.10;2.80;;;1.20;51.30;;;;;;626861;229;26618;-65
2022/03/11 00:36:06;;;;;;;2.72;2.50;;;1.20;51.30;;;;;;626878;229;26686;-65
2022/03/11 00:38:33;;;;;;;3.42;2.90;;;1.20;51.00;;;;;;626674;228;26583;-65
2022/03/11 00:41:00;;;;;;;3.10;2.80;;;1.20;51.10;;;;;;626562;229;26754;-65
2022/03/11 00:43:28;;;;;;;5.18;2.75;;;1.20;51.30;;;;;;627753;229;26564;-65
2022/03/11 00:45:55;;;;;;;2.97;2.72;;;1.20;51.40;;;;;;626603;228;26545;-65
2022/03/11 00:48:23;;;;;;;2.83;2.62;;;1.20;51.20;;;;;;626496;229;26540;-65
2022/03/11 00:50:51;;;;;;;3.22;2.95;;;1.10;51.00;;;;;;626548;229;26535;-65
2022/03/11 00:53:18;;;;;;;3.08;2.78;;;1.10;51.00;;;;;;626497;229;26813;-65
2022/03/11 00:55:45;;;;;;;2.90;2.70;;;1.10;51.70;;;;;;626514;229;26536;-65
2022/03/11 00:58:12;;;;;;;2.65;2.45;;;1.10;51.40;;;;;;626242;229;26774;-65
2022/03/11 01:00:40;;;;;;;2.72;2.53;;;1.00;50.90;;;;;;626216;229;26507;-65
2022/03/11 01:03:08;;;;;;;3.35;2.58;;;1.00;51.30;;;;;;626177;229;26560;-65
2022/03/11 01:05:36;;;;;;;4.18;2.70;;;1.00;51.10;;;;;;626223;229;26548;-65
2022/03/11 01:08:04;;;;;;;3.22;2.90;;;1.00;51.20;;;;;;626212;229;26772;-65
2022/03/11 01:10:31;;;;;;;3.10;2.90;;;0.90;51.00;;;;;;626271;230;26590;-65
2022/03/11 01:12:59;;;;;;;3.33;2.80;;;0.90;50.90;;;;;;626208;229;26788;-65
2022/03/11 01:15:26;;;;;;;3.08;2.65;;;0.90;50.90;;;;;;626198;229;27131;-65
2022/03/11 01:17:54;;;;;;;2.83;2.62;;;1.00;51.30;;;;;;626248;229;26555;-65
2022/03/11 01:20:22;;;;;;;3.17;2.87;;;0.90;51.20;;;;;;626276;229;26539;-65
2022/03/11 01:22:49;;;;;;;3.10;2.80;;;0.90;51.20;;;;;;626183;229;26555;-65
2022/03/11 01:25:16;;;;;;;3.40;3.10;;;0.90;51.30;;;;;;626319;229;26532;-65
2022/03/11 01:27:44;;;;;;;2.83;2.62;;;0.90;51.10;;;;;;626278;229;26576;-65
2022/03/11 01:30:13;;;;;;;3.15;2.95;;;0.90;51.20;;;;;;626258;229;26591;-65
2022/03/11 01:32:39;;;;;;;3.12;2.92;;;0.90;51.20;;;;;;625584;229;26627;-65
2022/03/11 01:35:07;;;;;;;3.00;2.80;;;0.80;51.00;;;;;;627168;229;26812;-65
2022/03/11 01:37:34;;;;;;;3.22;2.70;;;0.80;51.10;;;;;;627258;229;26536;-65
2022/03/11 01:40:02;;;;;;;3.37;3.08;;;0.80;51.10;;;;;;627196;229;26773;-65
2022/03/11 01:42:29;;;;;;;3.20;2.83;;;0.80;51.70;;;;;;626805;228;26601;-65
2022/03/11 01:44:56;;;;;;;3.45;2.85;;;0.80;50.80;;;;;;626912;228;26790;-65
2022/03/11 01:47:23;;;;;;;2.78;2.58;;;0.80;51.20;;;;;;626874;229;26601;-65
2022/03/11 01:49:50;;;;;;;3.17;2.70;;;0.80;51.00;;;;;;626702;229;26572;-65
2022/03/11 01:52:18;;;;;;;3.25;2.95;;;0.80;51.20;;;;;;626547;228;26564;-65
2022/03/11 01:54:46;;;;;;;3.00;2.80;;;0.70;51.20;;;;;;626572;228;26523;-65
2022/03/11 01:57:13;;;;;;;2.72;2.53;;;0.70;51.30;;;;;;626585;228;26527;-65
2022/03/11 01:59:40;;;;;;;8.07;3.45;;;0.70;51.10;;;;;;626542;228;26781;-65
2022/03/11 02:02:07;;;;;;;3.37;3.08;;;0.70;51.20;;;;;;626550;228;26524;-65
2022/03/11 02:04:34;;;;;;;2.95;2.75;;;0.70;51.40;;;;;;626593;228;26748;-65
2022/03/11 02:07:04;;;;;;;3.92;2.70;;;0.60;51.50;;;;;;626538;229;26527;-65
2022/03/11 02:09:30;;;;;;;3.50;3.20;;;0.60;51.90;;;;;;626183;229;26531;-65
2022/03/11 02:11:57;;;;;;;3.08;2.78;;;0.60;51.10;;;;;;626214;229;26853;-65
2022/03/11 02:14:24;;;;;;;3.10;2.80;;;0.50;51.30;;;;;;626196;230;26531;-65
2022/03/11 02:16:51;;;;;;;2.87;2.67;;;0.60;51.50;;;;;;626256;230;26782;-65
2022/03/11 02:19:19;;;;;;;3.00;2.80;;;0.60;51.40;;;;;;626280;229;26537;-65
2022/03/11 02:21:47;;;;;;;2.80;2.60;;;0.60;51.10;;;;;;626217;229;26601;-65
2022/03/11 02:24:14;;;;;;;3.70;2.78;;;0.60;51.10;;;;;;626152;229;26653;-65
2022/03/11 02:26:42;;;;;;;3.50;3.20;;;0.50;51.00;;;;;;626075;230;26516;-65
2022/03/11 02:29:09;;;;;;;3.08;2.80;;;0.50;51.30;;;;;;626229;229;26793;-65
2022/03/11 02:31:36;;;;;;;3.08;2.87;;;0.50;51.30;;;;;;626222;229;26523;-65
2022/03/11 02:34:04;;;;;;;3.12;2.90;;;0.50;51.60;;;;;;626251;229;26785;-65
2022/03/11 02:36:31;;;;;;;3.12;2.90;;;0.50;51.50;;;;;;626250;229;26540;-65
2022/03/11 02:38:58;;;;;;;3.40;3.17;;;0.50;51.50;;;;;;626243;225;26750;-65
2022/03/11 02:41:26;;;;;;;2.90;2.70;;;0.30;51.30;;;;;;626187;229;26535;-65
2022/03/11 02:43:54;;;;;;;3.30;3.00;;;0.30;51.30;;;;;;627388;227;26623;-65
2022/03/11 02:46:21;;;;;;;3.60;3.10;;;0.30;51.80;;;;;;627563;229;26809;-65
2022/03/11 02:48:49;;;;;;;3.25;3.00;;;0.30;51.90;;;;;;627277;229;26493;-65
2022/03/11 02:51:16;;;;;;;3.60;3.30;;;0.30;52.20;;;;;;627143;228;26541;-65
2022/03/11 02:53:44;;;;;;;3.30;3.10;;;0.20;52.00;;;;;;626730;229;26662;-65
2022/03/11 02:56:11;;;;;;;2.83;2.62;;;0.20;52.00;;;;;;626880;229;26604;-65
2022/03/11 02:58:39;;;;;;;3.10;2.85;;;0.20;51.50;;;;;;626855;228;26609;-65
2022/03/11 03:01:06;;;;;;;2.87;2.67;;;0.30;52.10;;;;;;626725;229;26612;-65
2022/03/11 03:03:33;;;;;;;3.22;2.95;;;0.20;52.10;;;;;;626593;228;26563;-65
2022/03/11 03:06:01;;;;;;;3.05;2.85;;;0.10;51.80;;;;;;626526;228;26528;-65
2022/03/11 03:08:28;;;;;;;2.90;2.60;;;0.10;51.80;;;;;;626557;229;26779;-65
2022/03/11 03:10:55;;;;;;;3.00;2.70;;;0.10;51.60;;;;;;626573;229;26540;-65
2022/03/11 03:13:23;;;;;;;4.93;2.78;;;0.10;52.20;;;;;;626568;228;27218;-67
2022/03/11 03:15:50;;;;;;;2.83;2.50;;;0.10;51.80;;;;;;626510;229;26798;-68
2022/03/11 03:18:18;;;;;;;3.62;2.85;;;0.00;51.70;;;;;;626574;229;26547;-69
2022/03/11 03:20:46;;;;;;;3.10;2.90;;;0.00;52.20;;;;;;626238;229;26547;-69
2022/03/11 03:23:14;;;;;;;3.05;2.85;;;0.00;52.20;;;;;;626233;229;26785;-69
2022/03/11 03:25:41;;;;;;;2.53;2.33;;;0.00;52.20;;;;;;626224;230;26543;-69
2022/03/11 03:28:09;;;;;;;3.25;3.00;;;0.00;51.80;;;;;;626284;229;26540;-69
2022/03/11 03:30:37;;;;;;;2.87;2.67;;;0.00;52.80;;;;;;626268;230;26541;-69
2022/03/11 03:33:05;;;;;;;3.10;2.80;;;-0.10;52.50;;;;;;626179;229;26631;-69
2022/03/11 03:35:33;;;;;;;3.05;2.75;;;-0.10;52.50;;;;;;626272;229;26547;-69
2022/03/11 03:37:59;;;;;;;2.92;2.72;;;-0.10;52.50;;;;;;626193;230;26492;-69
2022/03/11 03:40:27;;;;;;;3.17;2.87;;;-0.10;52.50;;;;;;626338;229;26815;-72
2022/03/11 03:42:54;;;;;;;2.90;2.70;;;-0.10;52.50;;;;;;626242;229;26563;-72
2022/03/11 03:45:22;;;;;;;5.72;2.58;;;-0.20;52.50;;;;;;626164;229;26532;-72
2022/03/11 03:47:50;;;;;;;2.80;2.60;;;-0.20;52.20;;;;;;626229;229;26577;-72
2022/03/11 03:50:18;;;;;;;3.45;3.15;;;-0.30;52.30;;;;;;626228;229;26578;-72
2022/03/11 03:52:45;;;;;;;3.17;2.92;;;-0.30;52.30;;;;;;626237;229;26566;-72
2022/03/11 03:55:12;;;;;;;4.47;2.90;;;-0.20;52.60;;;;;;627282;227;26582;-72
2022/03/11 03:57:39;;;;;;;4.32;2.85;;;-0.30;52.80;;;;;;627649;229;26797;-72
2022/03/11 04:00:08;;;;;;;3.15;2.85;;;-0.30;52.80;;;;;;627232;229;26582;-72
2022/03/11 04:02:36;;;;;;;4.37;2.70;;;-0.30;52.80;;;;;;627087;229;26592;-72
2022/03/11 04:05:02;;;;;;;2.90;2.70;;;-0.30;52.70;;;;;;626869;229;26819;-73
2022/03/11 04:07:29;;;;;;;3.85;3.35;;;-0.30;53.00;;;;;;626862;228;26584;-72
2022/03/11 04:09:56;;;;;;;2.72;2.53;;;-0.30;53.10;;;;;;626895;229;26796;-72
2022/03/11 04:12:24;;;;;;;2.92;2.70;;;-0.40;53.00;;;;;;626780;229;26600;-72
2022/03/11 04:14:52;;;;;;;2.90;2.70;;;-0.50;53.10;;;;;;626548;229;26539;-72
2022/03/11 04:17:20;;;;;;;4.07;2.87;;;-0.50;53.70;;;;;;626510;229;26549;-73
2022/03/11 04:19:48;;;;;;;3.08;2.75;;;-0.50;53.00;;;;;;626550;229;26533;-73
2022/03/11 04:22:15;;;;;;;3.45;2.72;;;-0.50;53.00;;;;;;626554;229;26777;-72
2022/03/11 04:24:42;;;;;;;4.00;2.97;;;-0.50;53.10;;;;;;626633;229;26539;-72
2022/03/11 04:27:10;;;;;;;3.10;2.80;;;-0.70;53.00;;;;;;626503;229;26904;-72
2022/03/11 04:29:37;;;;;;;2.92;2.70;;;-0.60;53.00;;;;;;626555;229;26529;-72
2022/03/11 04:32:04;;;;;;;3.12;2.80;;;-0.70;53.30;;;;;;626243;228;26766;-72
2022/03/11 04:34:31;;;;;;;3.37;2.45;;;-0.70;53.40;;;;;;626276;229;26520;-72
2022/03/11 04:36:59;;;;;;;3.00;2.65;;;-0.70;53.50;;;;;;626232;230;26535;-72
2022/03/11 04:39:27;;;;;;;3.22;2.92;;;-0.60;53.50;;;;;;626267;230;26523;-72
2022/03/11 04:41:54;;;;;;;2.90;2.70;;;-0.70;53.10;;;;;;626253;229;26536;-72
2022/03/11 04:44:22;;;;;;;2.80;2.60;;;-0.70;53.40;;;;;;626244;229;26567;-72
2022/03/11 04:46:49;;;;;;;2.87;2.67;;;-0.70;53.50;;;;;;626241;229;26785;-73
2022/03/11 04:49:16;;;;;;;4.50;3.08;;;-0.70;53.60;;;;;;626281;229;26529;-72
2022/03/11 04:51:43;;;;;;;3.28;2.97;;;-0.70;53.80;;;;;;626227;229;26753;-73
2022/03/11 04:54:10;;;;;;;3.00;2.70;;;-0.70;53.60;;;;;;626276;229;26576;-72
2022/03/11 04:56:38;;;;;;;3.25;2.92;;;-0.70;53.50;;;;;;626293;229;27251;-72
2022/03/11 04:59:05;;;;;;;3.67;2.80;;;-0.70;53.30;;;;;;626246;229;26548;-73
2022/03/11 05:01:32;;;;;;;3.03;2.70;;;-0.70;53.40;;;;;;626233;229;26770;-72
2022/03/11 05:04:00;;;;;;;3.30;2.60;;;-0.80;53.50;;;;;;626264;229;26577;-73
2022/03/11 05:06:27;;;;;;;3.25;2.92;;;-0.80;53.90;;;;;;626933;227;26842;-73
2022/03/11 05:08:55;;;;;;;3.08;2.78;;;-0.80;54.00;;;;;;627653;224;26548;-73
2022/03/11 05:11:23;;;;;;;3.15;2.85;;;-0.80;53.80;;;;;;627320;228;26549;-72
2022/03/11 05:13:52;;;;;;;3.70;2.90;;;-0.80;53.70;;;;;;627114;229;26576;-72
2022/03/11 05:16:19;;;;;;;3.33;3.03;;;-0.90;53.60;;;;;;626921;229;26543;-73
2022/03/11 05:18:47;;;;;;;3.08;2.87;;;-0.80;53.90;;;;;;626801;229;27219;-72
2022/03/11 05:21:13;;;;;;;3.40;3.10;;;-0.80;53.70;;;;;;626780;229;26589;-73
2022/03/11 05:23:41;;;;;;;2.95;2.62;;;-0.90;53.70;;;;;;626869;228;26836;-73
2022/03/11 05:26:24;;;;;;;2.85;2.65;;;-0.90;53.80;;;;;;626501;228;26536;-73
2022/03/11 05:28:35;;;;;;;3.28;3.08;;;-0.90;54.10;;;;;;625394;229;27083;-72
2022/03/11 05:31:02;;;;;;;4.00;2.75;;;-0.90;54.00;;;;;;626577;228;26561;-73
2022/03/11 05:33:29;;;;;;;3.17;2.90;;;-0.90;54.00;;;;;;626530;228;26559;-73
2022/03/11 05:35:57;;;;;;;3.05;2.85;;;-0.90;54.30;;;;;;626516;229;26536;-72
2022/03/11 05:38:25;;;;;;;3.03;2.72;;;-1.10;53.90;;;;;;626557;229;26529;-73
2022/03/11 05:40:53;;;;;;;2.80;2.60;;;-1.10;54.10;;;;;;626550;229;26555;-73
2022/03/11 05:43:20;;;;;;;2.97;2.67;;;-1.10;54.10;;;;;;626284;228;26576;-73
2022/03/11 05:45:48;;;;;;;3.45;3.15;;;-1.10;54.00;;;;;;626280;229;26563;-72
2022/03/11 05:48:15;;;;;;;3.05;2.85;;;-1.00;54.20;;;;;;626240;229;26773;-73
2022/03/11 05:50:42;;;;;;;3.80;2.90;;;-1.10;54.30;;;;;;626229;229;26596;-73
2022/03/11 05:53:09;;;;;;;3.22;2.92;;;-1.00;54.20;;;;;;626204;229;26831;-73
2022/03/11 05:55:36;;;;;;;3.22;2.90;;;-1.10;54.20;;;;;;626275;229;26538;-73
2022/03/11 05:58:04;;;;;;;3.58;2.90;;;-1.00;54.40;;;;;;626210;229;27224;-73
2022/03/11 06:00:32;;;;;;;3.40;3.10;;;-0.90;54.30;;;;;;626312;229;26788;-73
2022/03/11 06:02:59;;;;;;;3.15;2.90;;;-0.90;54.10;;;;;;626184;230;26559;-74
2022/03/11 06:05:27;;;;;;;2.90;2.67;;;-0.90;54.00;;;;;;626307;229;26539;-71
2022/03/11 06:07:54;;;;;;;3.20;2.90;;;-0.90;53.50;;;;;;626133;229;26587;-74
2022/03/11 06:10:22;;;;;;;3.17;2.87;;;-0.90;53.60;;;;;;626214;230;26552;-71
2022/03/11 06:12:49;;;;;;;3.12;2.83;;;-0.90;53.60;;;;;;626173;229;26804;-72
2022/03/11 06:15:17;;;;;;;3.28;2.97;;;-0.90;53.70;;;;;;626174;229;26566;-74
2022/03/11 06:17:44;;;;;;;3.55;2.92;;;-0.80;53.70;;;;;;626634;227;26611;-73
2022/03/11 06:20:13;;;;;;;3.65;3.15;;;-0.80;53.60;;;;;;627629;228;26803;-73
2022/03/11 06:22:46;;;;;;;2.95;2.75;;;-0.70;53.40;;;;;;627184;223;26664;-74
2022/03/11 06:25:14;;;;;;;3.05;2.78;;;-0.70;53.00;;;;;;627141;223;26543;-73
2022/03/11 06:27:40;;;;;;;4.45;3.40;;;-0.60;53.20;;;;;;626957;229;26601;-73
2022/03/11 06:30:09;;;;;;;3.30;3.00;;;-0.60;52.90;;;;;;626831;224;26648;-73
2022/03/11 06:32:39;;;;;;;3.33;3.03;;;-0.50;52.90;;;;;;626823;229;26606;-73
2022/03/11 06:35:08;;;;;;;2.83;2.62;;;-0.40;52.80;;;;;;626862;229;26630;-73
2022/03/11 06:37:35;;;;;;;2.83;2.42;;;-0.50;52.80;;;;;;626585;228;26916;-73
2022/03/11 06:40:02;;;;;;;2.85;2.65;;;-0.40;53.10;;;;;;626561;228;26524;-73
2022/03/11 06:42:33;;;;;;;2.97;2.60;;;-0.40;52.70;;;;;;626444;224;26812;-73
2022/03/11 06:45:00;;;;;;;3.28;2.85;;;-0.30;52.80;;;;;;626544;228;26544;-73
2022/03/11 06:47:28;;;;;;;3.12;2.90;;;-0.20;51.90;;;;;;626536;229;26543;-73
2022/03/11 06:49:56;;;;;;;3.42;3.12;;;-0.20;51.90;;;;;;626525;229;26539;-73
2022/03/11 06:52:24;;;;;;;3.37;3.08;;;-0.30;51.90;;;;;;626499;228;26576;-74
2022/03/11 06:54:51;;;;;;;3.53;3.25;;;-0.20;51.90;;;;;;626366;229;26540;-73
2022/03/11 06:57:18;;;;;;;3.50;3.20;;;-0.10;51.50;;;;;;626200;229;26781;-73
2022/03/11 06:59:45;;;;;;;3.78;3.00;;;0.00;51.80;;;;;;626210;229;26532;-73
2022/03/11 07:02:12;;;;;;;3.20;2.85;;;0.10;51.90;;;;;;626205;229;26776;-73
2022/03/11 07:04:40;;;;;;;3.15;2.95;;;0.10;50.90;;;;;;626230;229;26536;-73
2022/03/11 07:07:07;;;;;;;3.17;2.87;;;0.10;50.70;;;;;;626245;230;26528;-73
2022/03/11 07:09:35;;;;;;;3.08;2.83;;;0.20;51.20;;;;;;626275;229;26536;-73
2022/03/11 07:12:03;;;;;;;3.10;2.90;;;0.20;51.20;;;;;;626255;229;26541;-73
2022/03/11 07:14:29;;;;;;;3.20;3.00;;;0.40;50.70;;;;;;626319;229;26543;-73
2022/03/11 07:16:57;;;;;;;3.35;3.05;;;0.30;50.30;;;;;;626312;229;26540;-73
2022/03/11 07:19:24;;;;;;;3.15;2.90;;;0.30;50.90;;;;;;626387;229;26737;-73
2022/03/11 07:21:51;;;;;;;3.30;3.05;;;0.40;50.40;;;;;;626204;229;26539;-73
2022/03/11 07:24:19;;;;;;;3.45;3.15;;;0.60;49.80;;;;;;626240;230;26619;-73
2022/03/11 07:26:47;;;;;;;4.25;3.12;;;0.60;50.30;;;;;;626192;229;26540;-73
2022/03/11 07:29:14;;;;;;;3.47;3.17;;;0.60;50.30;;;;;;626660;227;27196;-73
2022/03/11 07:31:41;;;;;;;3.35;3.05;;;0.60;50.30;;;;;;627785;228;26540;-73
2022/03/11 07:34:09;;;;;;;3.10;2.85;;;0.60;49.60;;;;;;627381;229;26833;-73
2022/03/11 07:36:36;;;;;;;3.50;3.20;;;0.80;49.80;;;;;;627107;228;26553;-74
2022/03/11 07:39:04;;;;;;;3.72;3.17;;;0.80;50.10;;;;;;627026;228;26540;-74
2022/03/11 07:41:32;;;;;;;3.47;3.17;;;0.90;49.50;;;;;;626626;229;26804;-74
2022/03/11 07:43:59;;;;;;;3.30;3.00;;;0.90;49.50;;;;;;626832;228;26815;-73
2022/03/11 07:46:27;;;;;;;3.42;3.12;;;1.00;49.10;;;;;;626893;228;26585;-74
2022/03/11 07:48:53;;;;;;;3.45;3.15;;;1.00;49.10;;;;;;626597;229;26543;-73
2022/03/11 07:51:21;;;;;;;3.10;2.78;;;1.10;48.70;;;;;;626482;228;26548;-73
2022/03/11 07:53:48;;;;;;;3.08;2.85;;;1.10;48.70;;;;;;626519;229;26579;-73
2022/03/11 07:56:16;;;;;;;4.20;3.10;;;1.20;48.70;;;;;;626589;228;26528;-74
2022/03/11 07:58:43;;;;;;;3.12;2.83;;;1.30;48.50;;;;;;626573;229;26769;-74
2022/03/11 08:01:10;;;;;;;3.60;3.30;;;1.30;48.70;;;;;;624741;228;26531;-74
2022/03/11 08:03:37;;;;;;;3.58;3.28;;;1.30;48.20;;;;;;623281;229;26823;-74
2022/03/11 08:06:05;;;;;;;3.47;3.17;;;1.50;48.50;;;;;;623086;229;26592;-74
2022/03/11 08:08:33;;;;;;;3.58;3.28;;;1.60;48.20;;;;;;622977;229;26617;-74
2022/03/11 08:11:00;;;;;;;4.03;3.22;;;1.60;48.30;;;;;;622933;229;26812;-74
2022/03/11 08:13:27;;;;;;;5.18;3.03;;;1.50;48.00;;;;;;622985;224;26601;-69
2022/03/11 08:15:55;;;;;;;4.32;3.20;;;1.50;47.40;;;;;;631795;225;26809;-69
2022/03/11 08:18:22;;;;;;;3.95;3.20;;;1.60;47.60;;;;;;628613;225;26541;-69
2022/03/11 08:20:49;;;;;;;7.18;3.80;;;1.70;47.20;;;;;;629151;226;26528;-68
2022/03/11 08:23:17;;;;;;;6.00;4.22;;;1.70;46.60;;;;;;623995;229;26620;-68
2022/03/11 08:25:45;;;;;;;6.28;4.05;;;1.70;46.60;;;;;;624501;226;26539;-69
2022/03/11 08:28:13;;;;;;;4.28;3.78;;;1.80;46.60;;;;;;633932;225;26531;-68
2022/03/11 08:30:39;;;;;;;5.05;3.80;;;1.90;46.20;;;;;;637683;225;26904;-68
2022/03/11 08:33:06;;;;;;;4.57;4.00;;;2.00;46.40;;;;;;628949;226;26651;-68
2022/03/11 08:35:33;;;;;;;7.82;4.20;;;2.00;46.00;;;;;;626212;229;26521;-68
2022/03/11 08:38:04;;;;;;;5.22;4.05;;;2.10;45.90;;;;;;624084;229;26583;-68
2022/03/11 08:40:29;;;;;;;6.35;3.90;;;2.20;45.60;;;;;;633120;226;26596;-68
2022/03/11 08:42:56;;;;;;;4.60;4.07;;;2.20;45.60;;;;;;627183;226;26918;-68
2022/03/11 08:45:24;;;;;;;6.30;4.43;;;2.20;46.00;;;;;;636542;226;26506;-68
2022/03/11 08:47:50;;;;;;;4.87;4.28;;;2.30;46.30;;;;;;636287;226;26816;-68
2022/03/11 08:50:18;;;;;;;4.93;3.87;;;2.40;45.30;;;;;;626503;226;26511;-69
2022/03/11 08:52:45;;;;;;;5.53;4.50;;;2.50;45.10;;;;;;627874;226;26623;-69
2022/03/11 08:55:13;;;;;;;11.70;5.28;;;2.60;44.60;;;;;;632032;226;26609;-68
2022/03/11 08:57:41;;;;;;;10.40;4.85;;;2.70;45.20;;;;;;623620;229;26507;-68
2022/03/11 09:00:12;;;;;;;13.88;5.20;;;2.70;45.20;;;;;;625574;229;26535;-68
2022/03/11 09:02:38;;;;;;;13.32;4.65;;;2.80;43.80;;;;;;623683;229;26620;-68
2022/03/11 09:05:07;;;;;;;9.75;4.62;;;2.80;44.10;;;;;;625629;228;26540;-68
2022/03/11 09:07:35;;;;;;;6.53;4.05;;;2.80;44.00;;;;;;625177;229;26795;-69
2022/03/11 09:10:02;;;;;;;8.77;4.90;;;3.00;43.50;;;;;;625520;226;26570;-68
2022/03/11 09:12:30;;;;;;;7.32;4.80;;;3.10;43.70;;;;;;626580;226;26567;-67
2022/03/11 09:14:57;;;;;;;9.43;4.93;;;3.10;43.70;;;;;;636021;226;26760;-68
2022/03/11 09:17:25;;;;;;;5.50;4.30;;;3.20;43.40;;;;;;630845;226;26522;-69
2022/03/11 09:19:52;;;;;;;7.65;4.53;;;3.20;43.50;;;;;;630668;226;26798;-66
2022/03/11 09:22:19;;;;;;;7.37;4.45;;;3.20;41.80;;;;;;637816;225;26547;-73
2022/03/11 09:24:46;;;;;;;12.30;4.72;;;3.30;42.20;;;;;;624149;225;26570;-71
2022/03/11 09:27:16;;;;;;;20.25;5.57;;;3.40;42.90;;;;;;625119;229;26535;-70
2022/03/11 09:29:42;;;;;;;63.75;15.45;;;3.40;42.50;;;;;;622761;227;26605;-71
2022/03/11 09:32:10;;;;;;;78.93;21.23;;;3.50;42.60;;;;;;625277;224;26596;-72
2022/03/11 09:34:40;;;;;;;142.90;30.85;;;3.60;41.50;;;;;;623480;227;26593;-71
2022/03/11 09:37:05;;;;;;;113.43;24.98;;;3.60;41.50;;;;;;625146;226;26512;-68
2022/03/11 09:39:32;;;;;;;98.10;21.60;;;3.60;41.40;;;;;;622952;231;26579;-68
2022/03/11 09:41:59;;;;;;;81.30;21.20;;;3.60;41.00;;;;;;622959;229;26628;-68
2022/03/11 09:44:27;;;;;;;69.78;16.87;;;3.60;40.50;;;;;;625800;225;26546;-66
2022/03/11 09:46:55;;;;;;;62.90;17.05;;;3.90;41.20;;;;;;635113;225;26875;-65
2022/03/11 09:49:22;;;;;;;36.38;13.00;;;3.90;41.00;;;;;;623616;229;26918;-66
2022/03/11 09:51:49;;;;;;;33.92;10.75;;;4.10;40.20;;;;;;622524;230;26599;-66
2022/03/11 09:54:17;;;;;;;15.68;6.70;;;4.20;39.90;;;;;;624220;228;26617;-66
2022/03/11 09:56:44;;;;;;;8.90;6.47;;;4.10;39.80;;;;;;623747;228;26780;-66
2022/03/11 09:59:11;;;;;;;9.50;6.22;;;4.10;40.20;;;;;;624052;229;26575;-72
2022/03/11 10:01:40;;;;;;;14.07;6.53;;;4.10;41.20;;;;;;623996;228;26793;-69
2022/03/11 10:04:12;;;;;;;17.25;6.82;;;4.10;39.10;;;;;;624431;225;26539;-68
2022/03/11 10:06:42;;;;;;;11.90;6.30;;;4.10;39.10;;;;;;623727;231;26733;-67
2022/03/11 10:09:33;;;;;;;8.82;6.18;;;4.10;38.90;;;;;;623886;224;26508;-67
2022/03/11 10:12:00;;;;;;;8.82;5.90;;;4.20;39.10;;;;;;623644;229;26800;-67
2022/03/11 10:14:28;;;;;;;8.15;5.85;;;4.20;38.50;;;;;;623648;229;26613;-67
2022/03/11 10:16:56;;;;;;;7.05;6.32;;;4.30;38.80;;;;;;623708;229;26570;-68
2022/03/11 10:19:24;;;;;;;8.82;6.45;;;4.30;38.80;;;;;;623699;229;26551;-67
2022/03/11 10:21:51;;;;;;;7.53;6.72;;;4.40;38.90;;;;;;623649;229;26521;-67
2022/03/11 10:24:19;;;;;;;9.45;6.30;;;4.50;38.60;;;;;;623645;229;26535;-67
2022/03/11 10:26:48;;;;;;;7.12;6.07;;;4.50;38.00;;;;;;623607;229;26530;-67
2022/03/11 10:29:16;;;;;;;8.48;6.12;;;4.50;37.90;;;;;;623331;229;26844;-66
2022/03/11 10:31:43;;;;;;;11.75;7.22;;;4.60;38.10;;;;;;622962;229;26854;-66
2022/03/11 10:34:13;;;;;;;10.70;7.68;;;4.70;37.80;;;;;;622953;230;26588;-66
2022/03/11 10:36:47;;;;;;;9.10;7.55;;;4.70;37.90;;;;;;622965;231;26591;-67
2022/03/11 10:39:14;;;;;;;9.10;7.40;;;4.70;38.20;;;;;;622924;229;26600;-66
2022/03/11 10:41:41;;;;;;;9.10;7.90;;;4.80;37.90;;;;;;622983;231;26600;-66
2022/03/11 10:44:09;;;;;;;9.02;8.07;;;4.90;37.70;;;;;;622996;229;26834;-67
2022/03/11 10:46:35;;;;;;;9.15;8.23;;;4.90;37.60;;;;;;623058;229;26601;-67
2022/03/11 10:49:03;;;;;;;10.10;8.43;;;5.00;37.50;;;;;;623082;229;26540;-67
2022/03/11 10:51:32;;;;;;;9.80;8.80;;;5.10;37.10;;;;;;626808;225;26604;-67
2022/03/11 10:53:59;;;;;;;8.63;7.68;;;5.10;37.00;;;;;;628294;225;26835;-67
2022/03/11 10:56:29;;;;;;;10.55;9.20;;;5.20;37.30;;;;;;626443;225;26598;-67
2022/03/11 10:58:55;;;;;;;8.70;7.75;;;5.20;36.90;;;;;;632608;225;26526;-67
2022/03/11 11:01:36;;;;;;;11.93;8.98;;;5.40;38.90;;;;;;627243;225;26617;-67
2022/03/11 11:04:04;;;;;;;9.50;8.48;;;5.50;36.40;;;;;;629739;224;26858;-67
2022/03/11 11:06:32;;;;;;;9.27;8.38;;;5.50;36.40;;;;;;626011;226;26592;-66
2022/03/11 11:08:59;;;;;;;10.52;9.10;;;5.60;36.20;;;;;;625782;225;26565;-67
2022/03/11 11:11:26;;;;;;;10.23;9.23;;;5.60;35.90;;;;;;631392;225;26587;-67
2022/03/11 11:13:53;;;;;;;11.43;9.45;;;5.60;35.70;;;;;;629867;225;26839;-66
2022/03/11 11:16:21;;;;;;;10.30;9.30;;;5.50;35.70;;;;;;638726;225;26549;-66
2022/03/11 11:18:48;;;;;;;10.70;9.60;;;5.60;36.00;;;;;;638441;225;26748;-67
2022/03/11 11:21:16;;;;;;;12.85;9.68;;;5.80;35.30;;;;;;639095;225;26503;-67
2022/03/11 11:23:44;;;;;;;12.90;9.93;;;5.80;35.30;;;;;;638711;225;26581;-66
2022/03/11 11:26:11;;;;;;;11.55;9.43;;;5.90;34.40;;;;;;638767;225;26791;-66
2022/03/11 11:28:38;;;;;;;10.68;9.07;;;6.00;34.60;;;;;;638814;225;26541;-66
2022/03/11 11:31:05;;;;;;;11.18;9.88;;;6.00;34.10;;;;;;638756;225;26811;-66
2022/03/11 11:33:32;;;;;;;11.70;10.45;;;6.00;34.20;;;;;;638759;225;26837;-66
2022/03/11 11:36:02;;;;;;;11.23;9.82;;;6.10;34.30;;;;;;638826;225;26586;-66
2022/03/11 11:38:29;;;;;;;11.45;9.77;;;6.10;35.00;;;;;;638572;225;26778;-66
2022/03/11 11:40:57;;;;;;;10.50;9.43;;;6.10;34.30;;;;;;638238;225;26583;-66
2022/03/11 11:43:26;;;;;;;14.15;10.52;;;6.30;34.40;;;;;;638083;225;26568;-66
2022/03/11 11:45:54;;;;;;;10.73;9.13;;;6.30;34.30;;;;;;638146;225;26774;-66
2022/03/11 11:48:59;;;;;;;13.23;10.50;;;6.30;34.30;;;;;;637860;225;26525;-66
2022/03/11 11:51:55;;;;;;;11.75;10.52;;;6.40;34.60;;;;;;635425;225;26717;-66
2022/03/11 11:54:22;;;;;;;11.40;10.20;;;6.50;34.10;;;;;;637626;225;26579;-67
2022/03/11 11:57:00;;;;;;;10.93;9.82;;;6.60;34.90;;;;;;636925;225;26776;-66
2022/03/11 11:59:25;;;;;;;11.00;9.90;;;6.60;34.40;;;;;;637773;225;26773;-66
2022/03/11 12:01:53;;;;;;;11.07;9.95;;;6.60;34.40;;;;;;638133;225;26537;-66
2022/03/11 12:04:21;;;;;;;11.95;10.75;;;6.70;34.10;;;;;;638110;225;26795;-66
2022/03/11 12:07:03;;;;;;;11.00;9.88;;;6.70;34.40;;;;;;638096;225;26524;-66
2022/03/11 12:09:48;;;;;;;12.48;10.88;;;6.80;33.90;;;;;;638132;225;26548;-66
2022/03/11 12:12:49;;;;;;;13.25;11.95;;;6.80;33.90;;;;;;636657;225;26512;-66
2022/03/11 12:15:16;;;;;;;13.23;11.75;;;7.00;33.40;;;;;;633112;223;26808;-66
2022/03/11 12:17:48;;;;;;;14.10;12.70;;;7.10;33.20;;;;;;639622;224;26559;-65
2022/03/11 12:20:36;;;;;;;14.90;13.25;;;7.10;33.30;;;;;;639505;225;27042;-67
2022/03/11 12:23:08;;;;;;;16.25;14.25;;;7.10;32.60;;;;;;639273;221;26568;-66
2022/03/11 12:25:36;;;;;;;17.80;16.00;;;7.10;32.60;;;;;;639184;225;26743;-66
2022/03/11 12:28:04;;;;;;;20.23;17.05;;;7.20;32.20;;;;;;638658;225;26517;-66
2022/03/11 12:30:33;;;;;;;19.75;17.67;;;7.30;32.60;;;;;;638608;225;26581;-66
2022/03/11 12:33:03;;;;;;;19.77;17.77;;;7.30;32.60;;;;;;638654;225;26597;-66
2022/03/11 12:35:31;;;;;;;19.95;18.05;;;7.40;31.80;;;;;;638383;225;26580;-66
2022/03/11 12:37:59;;;;;;;19.40;17.30;;;7.40;32.20;;;;;;638403;225;26640;-67
2022/03/11 12:40:27;;;;;;;19.67;17.77;;;7.40;32.10;;;;;;638399;225;26602;-66
2022/03/11 12:42:57;;;;;;;19.87;17.90;;;7.40;32.10;;;;;;638239;225;26570;-67
2022/03/11 12:45:30;;;;;;;20.50;18.30;;;7.40;32.00;;;;;;638404;225;26573;-67
2022/03/11 12:47:57;;;;;;;19.42;17.42;;;7.40;31.40;;;;;;638379;225;26600;-67
2022/03/11 12:50:26;;;;;;;18.67;16.83;;;7.40;31.40;;;;;;638382;225;27245;-67
2022/03/11 12:52:52;;;;;;;18.12;15.85;;;7.50;31.00;;;;;;638048;225;26555;-67
2022/03/11 12:55:20;;;;;;;17.50;15.70;;;7.60;31.00;;;;;;637986;225;26777;-67